createdAt,value
2022-08-08T00:00:51.068Z,63.70
2022-08-08T00:02:43.065Z,64.20
2022-08-08T00:04:55.807Z,63.90
2022-08-08T00:07:22.429Z,64.50
2022-08-08T00:09:52.474Z,63.30
2022-08-08T00:12:23.836Z,62.60
2022-08-08T00:14:59.192Z,62.50
2022-08-08T00:17:26.887Z,63.60
2022-08-08T00:20:01.906Z,64.20
2022-08-08T00:22:28.981Z,63.50
2022-08-08T00:24:56.855Z,63.50
2022-08-08T00:27:25.953Z,63.70
2022-08-08T00:30:01.384Z,63.30
2022-08-08T00:32:35.233Z,63.50
2022-08-08T00:35:04.147Z,64.00
2022-08-08T00:37:47.315Z,63.60
2022-08-08T00:41:10.699Z,64.00
2022-08-08T00:43:06.033Z,64.30
2022-08-08T00:45:45.032Z,64.20
2022-08-08T00:48:30.351Z,62.10
2022-08-08T00:51:00.417Z,62.40
2022-08-08T00:53:29.451Z,62.80
2022-08-08T00:55:56.018Z,62.50
2022-08-08T00:58:30.419Z,62.90
2022-08-08T01:00:58.139Z,62.40
2022-08-08T01:04:02.283Z,64.30
2022-08-08T01:06:11.970Z,62.50
2022-08-08T01:08:38.446Z,63.40
2022-08-08T01:11:13.189Z,63.50
2022-08-08T01:13:44.253Z,62.50
2022-08-08T01:16:19.169Z,62.50
2022-08-08T01:18:53.566Z,62.10
2022-08-08T01:22:07.171Z,62.10
2022-08-08T01:24:16.344Z,61.40
2022-08-08T01:26:48.175Z,60.10
2022-08-08T01:29:15.847Z,61.50
2022-08-08T01:32:14.784Z,62.10
2022-08-08T01:34:29.011Z,61.30
2022-08-08T01:36:55.601Z,62.40
2022-08-08T01:39:23.410Z,62.10
2022-08-08T01:41:50.776Z,62.50
2022-08-08T01:44:19.054Z,62.10
2022-08-08T01:46:47.629Z,61.20
2022-08-08T01:49:23.460Z,61.40
2022-08-08T01:52:28.584Z,62.20
2022-08-08T01:55:27.165Z,62.10
2022-08-08T01:58:11.310Z,62.40
2022-08-08T02:00:23.670Z,62.10
2022-08-08T02:02:50.196Z,62.10
2022-08-08T02:05:17.362Z,62.10
2022-08-08T02:07:49.014Z,61.60
2022-08-08T02:10:30.279Z,61.90
2022-08-08T02:13:02.526Z,61.40
2022-08-08T02:15:28.969Z,61.70
2022-08-08T02:17:55.414Z,62.00
2022-08-08T02:21:01.425Z,61.70
2022-08-08T02:23:08.403Z,61.80
2022-08-08T02:25:48.651Z,61.50
2022-08-08T02:28:15.915Z,61.40
2022-08-08T02:30:49.724Z,61.10
2022-08-08T02:33:16.766Z,61.20
2022-08-08T02:36:04.255Z,60.80
2022-08-08T02:38:31.849Z,60.90
2022-08-08T02:40:58.456Z,61.30
2022-08-08T02:44:38.393Z,60.80
2022-08-08T02:46:11.328Z,61.20
2022-08-08T02:48:38.336Z,61.40
2022-08-08T02:51:11.742Z,60.80
2022-08-08T02:53:38.583Z,61.20
2022-08-08T02:56:05.020Z,61.10
2022-08-08T02:58:35.285Z,62.90
2022-08-08T03:01:03.364Z,61.00
2022-08-08T03:05:01.090Z,60.50
2022-08-08T03:06:24.183Z,60.50
2022-08-08T03:09:01.625Z,60.50
2022-08-08T03:11:37.731Z,60.80
2022-08-08T03:15:56.484Z,60.70
2022-08-08T03:17:01.074Z,60.60
2022-08-08T03:19:27.989Z,60.80
2022-08-08T03:21:59.663Z,60.50
2022-08-08T03:24:26.538Z,60.40
2022-08-08T03:26:55.202Z,60.80
2022-08-08T03:29:38.250Z,60.30
2022-08-08T03:32:08.832Z,60.80
2022-08-08T03:34:35.385Z,60.60
2022-08-08T03:37:10.802Z,60.80
2022-08-08T03:40:00.552Z,60.50
2022-08-08T03:42:38.697Z,60.50
2022-08-08T03:46:02.950Z,60.80
2022-08-08T03:47:57.380Z,60.50
2022-08-08T03:50:25.300Z,61.50
2022-08-08T03:52:52.670Z,61.10
2022-08-08T03:55:56.042Z,61.20
2022-08-08T03:58:31.854Z,61.30
2022-08-08T04:01:20.499Z,61.00
2022-08-08T04:04:00.162Z,61.30
2022-08-08T04:06:29.971Z,60.70
2022-08-08T04:08:56.883Z,60.80
2022-08-08T04:11:23.746Z,60.90
2022-08-08T04:14:04.318Z,61.20
2022-08-08T04:16:41.038Z,60.50
2022-08-08T04:19:23.935Z,60.50
2022-08-08T04:21:51.955Z,61.20
2022-08-08T04:24:28.856Z,60.40
2022-08-08T04:26:58.726Z,60.70
2022-08-08T04:29:25.506Z,61.70
2022-08-08T04:31:58.794Z,61.30
2022-08-08T04:34:32.036Z,61.80
2022-08-08T04:37:09.214Z,60.30
2022-08-08T04:40:05.711Z,60.90
2022-08-08T04:42:22.215Z,60.50
2022-08-08T04:44:50.067Z,60.50
2022-08-08T04:47:16.725Z,60.10
2022-08-08T04:50:01.084Z,61.30
2022-08-08T04:52:33.786Z,61.00
2022-08-08T04:55:01.532Z,60.40
2022-08-08T04:57:28.144Z,61.30
2022-08-08T04:59:55.260Z,61.00
2022-08-08T05:02:28.819Z,61.70
2022-08-08T05:04:59.332Z,60.40
2022-08-08T05:07:26.345Z,60.80
2022-08-08T05:09:52.822Z,61.40
2022-08-08T05:12:21.385Z,60.20
2022-08-08T05:14:55.570Z,60.30
2022-08-08T05:17:23.244Z,60.80
2022-08-08T05:20:10.666Z,60.90
2022-08-08T05:22:36.403Z,60.40
2022-08-08T05:25:02.967Z,61.10
2022-08-08T05:30:09.792Z,62.20
2022-08-08T05:32:37.518Z,61.60
2022-08-08T05:35:05.019Z,61.80
2022-08-08T05:37:49.197Z,61.70
2022-08-08T05:40:18.419Z,61.70
2022-08-08T05:42:51.235Z,61.10
2022-08-08T05:45:25.684Z,60.80
2022-08-08T05:48:08.562Z,60.20
2022-08-08T05:50:35.633Z,62.10
2022-08-08T05:53:54.667Z,61.30
2022-08-08T05:56:09.582Z,59.70
2022-08-08T05:58:35.904Z,60.70
2022-08-08T06:01:02.976Z,60.50
2022-08-08T06:03:31.546Z,61.30
2022-08-08T06:06:01.169Z,60.70
2022-08-08T06:08:33.618Z,61.80
2022-08-08T06:11:01.742Z,62.60
2022-08-08T06:13:35.492Z,61.50
2022-08-08T06:16:03.110Z,62.40
2022-08-08T06:18:29.818Z,61.80
2022-08-08T06:20:57.127Z,61.30
2022-08-08T06:23:48.669Z,61.10
2022-08-08T06:26:38.490Z,59.80
2022-08-08T06:29:02.458Z,63.30
2022-08-08T06:31:32.252Z,61.10
2022-08-08T06:34:25.545Z,60.40
2022-08-08T06:36:54.233Z,59.90
2022-08-08T06:39:21.761Z,60.20
2022-08-08T06:41:49.104Z,61.40
2022-08-08T06:44:22.849Z,60.60
2022-08-08T06:46:51.791Z,60.90
2022-08-08T06:49:18.265Z,60.10
2022-08-08T06:52:04.704Z,61.90
2022-08-08T06:54:31.434Z,62.80
2022-08-08T06:56:57.859Z,61.50
2022-08-08T06:59:25.595Z,61.50
2022-08-08T07:02:27.404Z,62.00
2022-08-08T07:04:45.499Z,61.70
2022-08-08T07:07:16.132Z,62.00
2022-08-08T07:09:56.441Z,61.90
2022-08-08T07:12:30.504Z,61.70
2022-08-08T07:14:57.866Z,61.70
2022-08-08T07:17:24.447Z,62.20
2022-08-08T07:20:06.656Z,63.30
2022-08-08T07:22:33.090Z,62.50
2022-08-08T07:24:59.555Z,62.30
2022-08-08T07:27:35.382Z,62.60
2022-08-08T07:30:16.652Z,62.60
2022-08-08T07:32:47.888Z,62.50
2022-08-08T07:35:15.001Z,62.80
2022-08-08T07:37:56.592Z,63.00
2022-08-08T07:40:30.146Z,63.50
2022-08-08T07:42:59.382Z,63.00
2022-08-08T07:45:26.387Z,63.50
2022-08-08T07:47:53.345Z,63.00
2022-08-08T07:50:23.434Z,63.00
2022-08-08T07:52:50.121Z,62.00
2022-08-08T07:55:16.585Z,64.40
2022-08-08T07:57:44.991Z,63.50
2022-08-08T08:00:16.661Z,63.40
2022-08-08T08:02:43.569Z,64.30
2022-08-08T08:05:15.007Z,65.70
2022-08-08T08:07:42.248Z,64.00
2022-08-08T08:10:12.958Z,63.50
2022-08-08T08:12:43.388Z,63.50
2022-08-08T08:15:10.192Z,64.20
2022-08-08T08:17:48.987Z,64.30
2022-08-08T08:20:22.030Z,64.30
2022-08-08T08:22:56.961Z,64.40
2022-08-08T08:25:43.556Z,63.80
2022-08-08T08:28:09.854Z,63.80
2022-08-08T08:30:36.319Z,63.40
2022-08-08T08:33:03.418Z,64.00
2022-08-08T08:38:21.553Z,63.30
2022-08-08T08:40:51.403Z,63.40
2022-08-08T08:43:18.724Z,63.50
2022-08-08T08:45:45.474Z,63.30
2022-08-08T08:48:18.998Z,63.30
2022-08-08T08:50:45.895Z,63.90
2022-08-08T08:53:54.837Z,63.70
2022-08-08T08:56:02.647Z,64.90
2022-08-08T08:58:29.395Z,63.70
2022-08-08T09:01:08.390Z,63.90
2022-08-08T09:03:46.547Z,64.70
2022-08-08T09:06:26.149Z,64.40
2022-08-08T09:08:53.670Z,64.10
2022-08-08T09:11:20.785Z,64.30
2022-08-08T09:13:47.944Z,63.90
2022-08-08T09:16:20.152Z,65.00
2022-08-08T09:18:55.247Z,63.70
2022-08-08T09:21:58.547Z,64.00
2022-08-08T09:24:08.147Z,64.10
2022-08-08T09:26:40.052Z,64.00
2022-08-08T09:29:13.776Z,64.10
2022-08-08T09:31:56.928Z,65.40
2022-08-08T09:34:34.326Z,64.50
2022-08-08T09:37:57.319Z,64.20
2022-08-08T09:42:44.013Z,63.70
2022-08-08T09:45:20.720Z,63.70
2022-08-08T09:48:10.269Z,64.40
2022-08-08T09:50:43.887Z,63.60
2022-08-08T09:53:24.873Z,63.60
2022-08-08T09:56:06.742Z,63.70
2022-08-08T09:58:41.348Z,63.60
2022-08-08T10:03:58.287Z,63.30
2022-08-08T10:06:29.622Z,63.50
2022-08-08T10:08:56.603Z,63.50
2022-08-08T10:12:27.445Z,63.50
2022-08-08T10:14:10.837Z,63.70
2022-08-08T10:16:54.495Z,63.70
2022-08-08T10:19:20.990Z,63.80
2022-08-08T10:21:50.304Z,64.80
2022-08-08T10:24:28.723Z,64.20
2022-08-08T10:26:59.110Z,64.20
2022-08-08T10:29:30.245Z,65.10
2022-08-08T10:32:04.505Z,64.00
2022-08-08T10:34:30.991Z,64.00
2022-08-08T10:36:59.926Z,64.20
2022-08-08T10:39:31.846Z,64.60
2022-08-08T10:42:16.265Z,62.70
2022-08-08T10:44:43.447Z,64.60
2022-08-08T10:47:12.211Z,63.20
2022-08-08T10:50:00.365Z,65.80
2022-08-08T10:52:30.969Z,64.10
2022-08-08T10:57:50.181Z,63.90
2022-08-08T11:00:17.439Z,64.10
2022-08-08T11:02:48.509Z,64.00
2022-08-08T11:05:17.803Z,65.40
2022-08-08T11:08:38.172Z,64.70
2022-08-08T11:10:30.955Z,64.80
2022-08-08T11:13:18.725Z,64.50
2022-08-08T11:15:52.367Z,64.30
2022-08-08T11:18:26.725Z,64.40
2022-08-08T11:20:57.429Z,64.30
2022-08-08T11:23:24.209Z,65.30
2022-08-08T11:25:58.575Z,64.20
2022-08-08T11:28:25.810Z,64.70
2022-08-08T11:30:55.861Z,64.50
2022-08-08T11:33:22.613Z,64.90
2022-08-08T11:36:09.041Z,64.80
2022-08-08T11:38:53.772Z,65.00
2022-08-08T11:41:21.504Z,64.60
2022-08-08T11:43:49.061Z,64.20
2022-08-08T11:46:17.836Z,65.30
2022-08-08T11:48:47.593Z,64.60
2022-08-08T11:51:30.814Z,64.90
2022-08-08T11:54:02.439Z,63.70
2022-08-08T11:56:33.037Z,64.40
2022-08-08T11:59:01.187Z,64.20
2022-08-08T12:01:28.937Z,64.20
2022-08-08T12:03:59.409Z,64.90
2022-08-08T12:06:26.228Z,64.70
2022-08-08T12:08:54.211Z,65.10
2022-08-08T12:11:27.206Z,64.40
2022-08-08T12:14:03.427Z,64.20
2022-08-08T12:16:44.663Z,65.10
2022-08-08T12:19:13.532Z,64.20
2022-08-08T12:22:00.638Z,65.20
2022-08-08T12:24:27.935Z,64.40
2022-08-08T12:26:56.946Z,64.70
2022-08-08T12:29:25.991Z,64.20
2022-08-08T12:32:09.393Z,65.40
2022-08-08T12:34:36.691Z,65.10
2022-08-08T12:37:03.300Z,64.40
2022-08-08T12:40:00.287Z,64.40
2022-08-08T12:42:21.028Z,64.40
2022-08-08T12:44:48.232Z,65.10
2022-08-08T12:47:16.823Z,64.90
2022-08-08T12:49:45.193Z,65.80
2022-08-08T12:52:28.411Z,64.80
2022-08-08T12:54:55.683Z,64.20
2022-08-08T12:57:23.426Z,64.70
2022-08-08T13:00:03.743Z,63.30
2022-08-08T13:02:33.094Z,64.30
2022-08-08T13:10:55.665Z,64.10
2022-08-08T13:13:23.860Z,64.20
2022-08-08T13:15:54.772Z,64.20
2022-08-08T13:18:27.235Z,64.20
2022-08-08T13:20:54.206Z,64.20
2022-08-08T13:23:30.623Z,64.30
2022-08-08T13:25:59.432Z,64.40
2022-08-08T13:28:32.432Z,64.30
2022-08-08T13:30:59.245Z,64.30
2022-08-08T13:33:42.740Z,64.70
2022-08-08T13:36:09.882Z,65.40
2022-08-08T13:38:36.316Z,65.40
2022-08-08T13:41:03.509Z,67.00
2022-08-08T13:43:29.942Z,64.70
2022-08-08T13:45:56.822Z,66.20
2022-08-08T13:48:26.621Z,64.70
2022-08-08T13:50:57.502Z,64.80
2022-08-08T13:53:26.097Z,64.20
2022-08-08T13:55:52.723Z,64.20
2022-08-08T13:58:20.954Z,64.20
2022-08-08T14:00:47.877Z,64.60
2022-08-08T14:03:52.162Z,64.40
2022-08-08T14:06:01.693Z,64.50
2022-08-08T14:08:30.271Z,65.00
2022-08-08T14:11:01.192Z,65.10
2022-08-08T14:13:33.654Z,65.10
2022-08-08T14:16:00.747Z,65.20
2022-08-08T14:18:35.198Z,64.60
2022-08-08T14:21:15.003Z,66.20
2022-08-08T14:24:04.533Z,64.90
2022-08-08T14:26:33.613Z,64.60
2022-08-08T14:29:00.103Z,64.60
2022-08-08T14:32:05.567Z,64.70
2022-08-08T14:34:22.906Z,64.40
2022-08-08T14:36:51.713Z,65.20
2022-08-08T14:39:20.985Z,64.50
2022-08-08T14:41:54.449Z,64.60
2022-08-08T14:44:24.922Z,64.70
2022-08-08T14:46:56.827Z,65.70
2022-08-08T14:49:32.220Z,64.90
2022-08-08T14:52:00.133Z,64.70
2022-08-08T14:54:29.801Z,64.60
2022-08-08T14:56:57.039Z,64.60
2022-08-08T14:59:44.444Z,64.60
2022-08-08T15:02:10.841Z,64.70
2022-08-08T15:04:42.210Z,64.60
2022-08-08T15:07:22.726Z,64.70
2022-08-08T15:09:51.433Z,64.70
2022-08-08T15:12:27.305Z,64.60
2022-08-08T15:14:54.231Z,64.60
2022-08-08T15:17:20.697Z,64.50
2022-08-08T15:19:47.273Z,64.80
2022-08-08T15:22:13.782Z,64.60
2022-08-08T15:24:44.612Z,64.70
2022-08-08T15:28:05.041Z,64.90
2022-08-08T15:30:03.027Z,64.70
2022-08-08T15:32:31.652Z,65.10
2022-08-08T15:34:58.265Z,65.10
2022-08-08T15:37:26.567Z,64.70
2022-08-08T15:39:53.984Z,64.80
2022-08-08T15:42:32.444Z,65.60
2022-08-08T15:44:59.633Z,65.00
2022-08-08T15:47:26.129Z,64.80
2022-08-08T15:49:52.598Z,65.30
2022-08-08T15:52:20.825Z,66.40
2022-08-08T15:54:54.381Z,65.30
2022-08-08T15:57:21.526Z,64.90
2022-08-08T16:00:06.702Z,65.40
2022-08-08T16:02:35.701Z,65.40
2022-08-08T16:05:03.895Z,65.10
2022-08-08T16:07:50.988Z,65.10
2022-08-08T16:13:05.264Z,64.30
2022-08-08T16:13:30.126Z,64.80
2022-08-08T16:15:59.414Z,64.80
2022-08-08T16:18:29.783Z,64.80
2022-08-08T16:21:00.716Z,64.90
2022-08-08T16:23:27.414Z,64.90
2022-08-08T16:25:57.228Z,65.30
2022-08-08T16:28:35.191Z,65.30
2022-08-08T16:31:03.236Z,64.80
2022-08-08T16:33:38.904Z,65.50
2022-08-08T16:36:08.510Z,65.40
2022-08-08T16:38:35.809Z,65.30
2022-08-08T16:41:07.256Z,64.90
2022-08-08T16:43:49.224Z,65.30
2022-08-08T16:46:43.114Z,64.90
2022-08-08T16:49:04.290Z,65.40
2022-08-08T16:55:00.526Z,65.00
2022-08-08T16:55:00.889Z,65.40
2022-08-08T16:57:23.236Z,65.20
2022-08-08T16:59:52.715Z,65.10
2022-08-08T17:02:38.814Z,65.60
2022-08-08T17:05:06.507Z,64.50
2022-08-08T17:07:32.958Z,64.90
2022-08-08T17:10:04.046Z,65.10
2022-08-08T17:12:31.336Z,64.90
2022-08-08T17:14:59.377Z,64.90
2022-08-08T17:18:01.695Z,64.90
2022-08-08T17:20:12.781Z,65.30
2022-08-08T17:22:42.508Z,65.10
2022-08-08T17:25:09.212Z,65.30
2022-08-08T17:27:46.086Z,64.10
2022-08-08T17:30:27.368Z,65.70
2022-08-08T17:34:37.466Z,65.10
2022-08-08T17:35:54.811Z,66.40
2022-08-08T17:38:31.141Z,67.30
2022-08-08T17:40:59.363Z,65.00
2022-08-08T17:43:25.904Z,65.20
2022-08-08T17:45:52.347Z,65.70
2022-08-08T17:48:29.329Z,65.10
2022-08-08T17:50:57.485Z,65.30
2022-08-08T17:53:31.274Z,65.40
2022-08-08T17:56:10.223Z,65.10
2022-08-08T18:04:04.555Z,65.10
2022-08-08T18:06:35.592Z,65.40
2022-08-08T18:09:09.628Z,65.60
2022-08-08T18:11:38.327Z,66.30
2022-08-08T18:14:21.809Z,65.40
2022-08-08T18:16:52.573Z,65.30
2022-08-08T18:19:20.701Z,64.80
2022-08-08T18:22:01.260Z,65.10
2022-08-08T18:24:28.521Z,65.40
2022-08-08T18:26:57.033Z,65.20
2022-08-08T18:29:30.156Z,65.10
2022-08-08T18:32:00.090Z,65.20
2022-08-08T18:34:30.307Z,65.40
2022-08-08T18:36:59.550Z,65.10
2022-08-08T18:39:28.330Z,65.30
2022-08-08T18:42:02.912Z,65.20
2022-08-08T18:44:30.383Z,65.30
2022-08-08T18:47:01.304Z,65.10
2022-08-08T18:49:32.682Z,65.10
2022-08-08T18:52:18.464Z,65.60
2022-08-08T18:55:00.639Z,65.20
2022-08-08T18:57:36.950Z,65.10
2022-08-08T19:00:13.874Z,65.40
2022-08-08T19:02:48.299Z,65.40
2022-08-08T19:05:22.709Z,65.30
2022-08-08T19:07:52.315Z,65.30
2022-08-08T19:10:19.166Z,65.80
2022-08-08T19:12:53.192Z,65.40
2022-08-08T19:15:23.554Z,65.40
2022-08-08T19:18:33.415Z,65.40
2022-08-08T19:20:43.063Z,65.50
2022-08-08T19:23:13.252Z,66.00
2022-08-08T19:26:01.463Z,66.30
2022-08-08T19:28:26.159Z,64.90
2022-08-08T19:31:04.021Z,65.80
2022-08-08T19:33:52.011Z,65.90
2022-08-08T19:36:27.534Z,65.70
2022-08-08T19:38:54.539Z,67.20
2022-08-08T19:41:21.499Z,66.30
2022-08-08T19:43:56.771Z,67.20
2022-08-08T19:46:33.617Z,66.20
2022-08-08T19:49:00.418Z,66.10
2022-08-08T19:51:34.606Z,68.10
2022-08-08T19:54:05.948Z,67.50
2022-08-08T19:56:40.742Z,65.00
2022-08-08T19:59:08.154Z,66.80
2022-08-08T20:02:01.335Z,68.40
2022-08-08T20:04:21.183Z,67.20
2022-08-08T20:06:50.707Z,65.70
2022-08-08T20:09:17.409Z,65.70
2022-08-08T20:11:49.542Z,65.70
2022-08-08T20:14:34.116Z,66.00
2022-08-08T20:17:01.842Z,66.30
2022-08-08T20:19:33.458Z,68.30
2022-08-08T20:22:03.072Z,66.70
2022-08-08T20:24:31.485Z,66.00
2022-08-08T20:26:57.955Z,66.50
2022-08-08T20:29:25.656Z,66.50
2022-08-08T20:32:14.189Z,65.80
2022-08-08T20:34:47.431Z,66.20
2022-08-08T20:37:14.554Z,66.20
2022-08-08T20:39:51.129Z,66.00
2022-08-08T20:42:18.202Z,66.70
2022-08-08T20:44:46.923Z,65.70
2022-08-08T20:47:23.596Z,65.80
2022-08-08T20:49:50.435Z,65.60
2022-08-08T20:52:20.489Z,65.60
2022-08-08T20:54:47.623Z,65.60
2022-08-08T20:57:17.425Z,65.50
2022-08-08T20:59:45.722Z,65.60
2022-08-08T21:02:19.630Z,65.60
2022-08-08T21:04:47.846Z,65.70
2022-08-08T21:07:16.763Z,65.60
2022-08-08T21:10:07.799Z,66.20
2022-08-08T21:12:39.444Z,65.80
2022-08-08T21:15:10.845Z,65.80
2022-08-08T21:17:42.788Z,65.70
2022-08-08T21:20:11.623Z,65.90
2022-08-08T21:22:38.563Z,65.70
2022-08-08T21:25:05.774Z,65.70
2022-08-08T21:28:06.274Z,65.70
2022-08-08T21:30:24.475Z,65.80
2022-08-08T21:32:52.506Z,65.80
2022-08-08T21:36:17.033Z,65.80
2022-08-08T21:38:11.797Z,65.80
2022-08-08T21:40:54.958Z,65.70
2022-08-08T21:43:23.370Z,65.80
2022-08-08T21:48:08.147Z,65.80
2022-08-08T21:48:44.684Z,65.80
2022-08-08T21:51:20.447Z,65.70
2022-08-08T21:54:32.788Z,66.00
2022-08-08T21:56:50.873Z,66.00
2022-08-08T21:59:18.114Z,66.00
2022-08-08T22:01:52.374Z,66.10
2022-08-08T22:04:22.113Z,66.50
2022-08-08T22:06:51.296Z,65.90
2022-08-08T22:09:18.236Z,67.80
2022-08-08T22:12:02.274Z,66.30
2022-08-08T22:14:31.165Z,69.30
2022-08-08T22:17:00.839Z,66.90
2022-08-08T22:19:29.022Z,66.30
2022-08-08T22:21:56.224Z,66.00
2022-08-08T22:24:28.393Z,66.60
2022-08-08T22:27:01.845Z,66.50
2022-08-08T22:29:59.706Z,66.30
2022-08-08T22:32:17.996Z,66.50
2022-08-08T22:34:45.143Z,65.90
2022-08-08T22:37:48.625Z,65.90
2022-08-08T22:40:04.609Z,65.80
2022-08-08T22:42:31.716Z,65.80
2022-08-08T22:45:00.871Z,65.80
2022-08-08T22:47:38.436Z,66.00
2022-08-08T22:50:09.912Z,66.50
2022-08-08T22:54:15.753Z,66.30
2022-08-08T22:55:58.722Z,65.90
2022-08-08T22:58:27.172Z,65.80
2022-08-08T23:00:55.377Z,66.20
2022-08-08T23:03:21.920Z,66.70
2022-08-08T23:05:49.581Z,65.90
2022-08-08T23:08:18.081Z,65.90
2022-08-08T23:10:52.589Z,66.00
2022-08-08T23:13:20.305Z,66.80
2022-08-08T23:16:40.983Z,66.30
2022-08-08T23:18:34.936Z,66.10
2022-08-08T23:21:01.368Z,66.20
2022-08-08T23:23:30.429Z,65.90
2022-08-08T23:25:57.941Z,66.00
2022-08-08T23:28:24.374Z,66.30
2022-08-08T23:30:50.921Z,66.00
2022-08-08T23:33:21.063Z,66.50
2022-08-08T23:36:08.425Z,65.90
2022-08-08T23:38:35.517Z,66.00
2022-08-08T23:41:02.038Z,66.00
2022-08-08T23:43:45.611Z,66.20
2022-08-08T23:49:01.122Z,66.00
2022-08-08T23:49:17.999Z,66.00
2022-08-08T23:52:04.812Z,66.00
2022-08-08T23:54:43.601Z,66.10
2022-08-08T23:57:26.805Z,66.30
